sensor_id;sensor_type;location;lat;lon;timestamp;temperature;humidity
24744;DHT22;12844;52.110;5.548;2023-06-26T01:40:59;26.70;54.30
24744;DHT22;12844;52.110;5.548;2023-06-26T01:43:56;26.70;54.30
24744;DHT22;12844;52.110;5.548;2023-06-26T01:46:25;26.70;54.30
24744;DHT22;12844;52.110;5.548;2023-06-26T01:49:24;26.70;54.30
24744;DHT22;12844;52.110;5.548;2023-06-26T01:52:20;26.70;54.30
24744;DHT22;12844;52.110;5.548;2023-06-26T01:54:58;26.70;54.30
24744;DHT22;12844;52.110;5.548;2023-06-26T01:57:26;26.70;54.40
24744;DHT22;12844;52.110;5.548;2023-06-26T01:59:53;26.70;54.40
24744;DHT22;12844;52.110;5.548;2023-06-26T02:02:19;26.70;54.40
24744;DHT22;12844;52.110;5.548;2023-06-26T02:04:44;26.70;54.40
24744;DHT22;12844;52.110;5.548;2023-06-26T02:07:13;26.70;54.40
24744;DHT22;12844;52.110;5.548;2023-06-26T02:09:39;26.70;54.40
24744;DHT22;12844;52.110;5.548;2023-06-26T02:12:05;26.70;54.40
24744;DHT22;12844;52.110;5.548;2023-06-26T02:14:30;26.70;54.40
24744;DHT22;12844;52.110;5.548;2023-06-26T02:16:56;26.70;54.40
24744;DHT22;12844;52.110;5.548;2023-06-26T02:19:21;26.70;54.40
24744;DHT22;12844;52.110;5.548;2023-06-26T02:21:48;26.70;54.40
24744;DHT22;12844;52.110;5.548;2023-06-26T02:24:14;26.70;54.40
24744;DHT22;12844;52.110;5.548;2023-06-26T02:26:40;26.70;54.40
24744;DHT22;12844;52.110;5.548;2023-06-26T02:29:06;26.70;54.40
24744;DHT22;12844;52.110;5.548;2023-06-26T02:31:31;26.70;54.40
24744;DHT22;12844;52.110;5.548;2023-06-26T02:33:57;26.70;54.40
24744;DHT22;12844;52.110;5.548;2023-06-26T02:36:22;26.70;54.40
24744;DHT22;12844;52.110;5.548;2023-06-26T02:38:48;26.70;54.40
24744;DHT22;12844;52.110;5.548;2023-06-26T02:41:13;26.70;54.40
24744;DHT22;12844;52.110;5.548;2023-06-26T02:43:39;26.70;54.40
24744;DHT22;12844;52.110;5.548;2023-06-26T02:46:04;26.70;54.40
24744;DHT22;12844;52.110;5.548;2023-06-26T02:48:30;26.70;54.50
24744;DHT22;12844;52.110;5.548;2023-06-26T02:50:55;26.70;54.40
24744;DHT22;12844;52.110;5.548;2023-06-26T02:53:21;26.70;54.40
24744;DHT22;12844;52.110;5.548;2023-06-26T02:55:46;26.70;54.40
24744;DHT22;12844;52.110;5.548;2023-06-26T02:58:13;26.70;54.40
24744;DHT22;12844;52.110;5.548;2023-06-26T03:00:38;26.70;54.40
24744;DHT22;12844;52.110;5.548;2023-06-26T03:03:07;26.70;54.40
24744;DHT22;12844;52.110;5.548;2023-06-26T03:05:32;26.70;54.40
24744;DHT22;12844;52.110;5.548;2023-06-26T03:07:58;26.70;54.40
24744;DHT22;12844;52.110;5.548;2023-06-26T03:10:23;26.60;54.30
24744;DHT22;12844;52.110;5.548;2023-06-26T03:12:49;26.60;54.30
24744;DHT22;12844;52.110;5.548;2023-06-26T03:15:14;26.60;54.30
24744;DHT22;12844;52.110;5.548;2023-06-26T03:17:40;26.70;54.30
24744;DHT22;12844;52.110;5.548;2023-06-26T03:20:06;26.60;54.30
24744;DHT22;12844;52.110;5.548;2023-06-26T03:22:33;26.60;54.30
24744;DHT22;12844;52.110;5.548;2023-06-26T03:24:58;26.70;54.30
24744;DHT22;12844;52.110;5.548;2023-06-26T03:27:24;26.60;54.30
24744;DHT22;12844;52.110;5.548;2023-06-26T03:29:52;26.70;54.30
24744;DHT22;12844;52.110;5.548;2023-06-26T03:32:17;26.70;54.30
24744;DHT22;12844;52.110;5.548;2023-06-26T03:34:43;26.60;54.20
24744;DHT22;12844;52.110;5.548;2023-06-26T03:37:08;26.60;54.20
24744;DHT22;12844;52.110;5.548;2023-06-26T03:39:34;26.60;54.20
24744;DHT22;12844;52.110;5.548;2023-06-26T03:42:00;26.60;54.20
24744;DHT22;12844;52.110;5.548;2023-06-26T03:44:27;26.60;54.20
24744;DHT22;12844;52.110;5.548;2023-06-26T03:46:52;26.60;54.20
24744;DHT22;12844;52.110;5.548;2023-06-26T03:49:18;26.60;54.10
24744;DHT22;12844;52.110;5.548;2023-06-26T03:51:44;26.60;54.20
24744;DHT22;12844;52.110;5.548;2023-06-26T03:54:10;26.60;54.10
24744;DHT22;12844;52.110;5.548;2023-06-26T03:56:36;26.60;54.20
24744;DHT22;12844;52.110;5.548;2023-06-26T03:59:01;26.60;54.10
24744;DHT22;12844;52.110;5.548;2023-06-26T04:01:27;26.60;54.10
24744;DHT22;12844;52.110;5.548;2023-06-26T04:03:53;26.60;54.10
24744;DHT22;12844;52.110;5.548;2023-06-26T04:06:18;26.60;54.10
24744;DHT22;12844;52.110;5.548;2023-06-26T04:08:44;26.60;54.10
24744;DHT22;12844;52.110;5.548;2023-06-26T04:11:09;26.60;54.20
24744;DHT22;12844;52.110;5.548;2023-06-26T04:13:35;26.60;54.10
24744;DHT22;12844;52.110;5.548;2023-06-26T04:16:01;26.60;54.10
24744;DHT22;12844;52.110;5.548;2023-06-26T04:18:26;26.60;54.20
24744;DHT22;12844;52.110;5.548;2023-06-26T04:21:09;26.60;54.10
24744;DHT22;12844;52.110;5.548;2023-06-26T04:23:37;26.60;54.10
24744;DHT22;12844;52.110;5.548;2023-06-26T04:26:03;26.60;54.20
24744;DHT22;12844;52.110;5.548;2023-06-26T04:28:30;26.60;54.20
24744;DHT22;12844;52.110;5.548;2023-06-26T04:30:56;26.60;54.20
24744;DHT22;12844;52.110;5.548;2023-06-26T04:33:22;26.60;54.20
24744;DHT22;12844;52.110;5.548;2023-06-26T04:35:48;26.60;54.20
24744;DHT22;12844;52.110;5.548;2023-06-26T04:38:14;26.60;54.20
24744;DHT22;12844;52.110;5.548;2023-06-26T04:40:40;26.60;54.10
24744;DHT22;12844;52.110;5.548;2023-06-26T04:43:06;26.60;54.20
24744;DHT22;12844;52.110;5.548;2023-06-26T04:45:31;26.60;54.10
24744;DHT22;12844;52.110;5.548;2023-06-26T04:47:57;26.60;54.10
24744;DHT22;12844;52.110;5.548;2023-06-26T04:50:23;26.60;54.10
24744;DHT22;12844;52.110;5.548;2023-06-26T04:52:48;26.60;54.10
24744;DHT22;12844;52.110;5.548;2023-06-26T04:55:14;26.60;54.10
24744;DHT22;12844;52.110;5.548;2023-06-26T04:57:39;26.60;54.10
24744;DHT22;12844;52.110;5.548;2023-06-26T05:00:05;26.60;54.10
24744;DHT22;12844;52.110;5.548;2023-06-26T05:02:35;26.60;54.30
24744;DHT22;12844;52.110;5.548;2023-06-26T05:05:01;26.60;54.10
24744;DHT22;12844;52.110;5.548;2023-06-26T05:07:26;26.60;54.10
24744;DHT22;12844;52.110;5.548;2023-06-26T05:09:52;26.60;54.10
24744;DHT22;12844;52.110;5.548;2023-06-26T05:12:17;26.60;54.10
24744;DHT22;12844;52.110;5.548;2023-06-26T05:14:43;26.60;54.10
24744;DHT22;12844;52.110;5.548;2023-06-26T05:17:08;26.60;54.20
24744;DHT22;12844;52.110;5.548;2023-06-26T05:19:34;26.60;54.10
24744;DHT22;12844;52.110;5.548;2023-06-26T05:22:01;26.60;54.10
24744;DHT22;12844;52.110;5.548;2023-06-26T05:24:30;26.60;54.10
24744;DHT22;12844;52.110;5.548;2023-06-26T05:26:56;26.60;54.10
24744;DHT22;12844;52.110;5.548;2023-06-26T05:29:22;26.50;54.00
24744;DHT22;12844;52.110;5.548;2023-06-26T05:31:49;26.60;54.10
24744;DHT22;12844;52.110;5.548;2023-06-26T05:34:17;26.60;54.10
24744;DHT22;12844;52.110;5.548;2023-06-26T05:36:46;26.60;54.10
24744;DHT22;12844;52.110;5.548;2023-06-26T05:39:12;26.60;54.10
24744;DHT22;12844;52.110;5.548;2023-06-26T05:41:38;26.60;54.10
24744;DHT22;12844;52.110;5.548;2023-06-26T05:44:04;26.60;54.10
24744;DHT22;12844;52.110;5.548;2023-06-26T05:46:29;26.60;54.70
24744;DHT22;12844;52.110;5.548;2023-06-26T05:48:55;26.50;54.00
24744;DHT22;12844;52.110;5.548;2023-06-26T05:51:21;26.50;54.00
24744;DHT22;12844;52.110;5.548;2023-06-26T05:53:46;26.50;54.00
24744;DHT22;12844;52.110;5.548;2023-06-26T05:56:12;26.50;54.00
24744;DHT22;12844;52.110;5.548;2023-06-26T05:58:38;26.50;54.10
24744;DHT22;12844;52.110;5.548;2023-06-26T06:01:04;26.50;54.10
24744;DHT22;12844;52.110;5.548;2023-06-26T06:03:30;26.50;54.10
24744;DHT22;12844;52.110;5.548;2023-06-26T06:05:55;26.60;54.10
24744;DHT22;12844;52.110;5.548;2023-06-26T06:08:21;26.50;54.10
24744;DHT22;12844;52.110;5.548;2023-06-26T06:10:46;26.60;54.20
24744;DHT22;12844;52.110;5.548;2023-06-26T06:13:12;26.60;54.10
24744;DHT22;12844;52.110;5.548;2023-06-26T06:15:37;26.50;54.10
24744;DHT22;12844;52.110;5.548;2023-06-26T06:18:03;26.50;54.10
24744;DHT22;12844;52.110;5.548;2023-06-26T06:20:28;26.50;54.10
24744;DHT22;12844;52.110;5.548;2023-06-26T06:22:54;26.50;54.10
24744;DHT22;12844;52.110;5.548;2023-06-26T06:25:19;26.60;54.10
24744;DHT22;12844;52.110;5.548;2023-06-26T06:27:45;26.50;54.00
24744;DHT22;12844;52.110;5.548;2023-06-26T06:30:11;26.60;54.10
24744;DHT22;12844;52.110;5.548;2023-06-26T06:32:37;26.60;54.10
24744;DHT22;12844;52.110;5.548;2023-06-26T06:35:02;26.60;54.10
24744;DHT22;12844;52.110;5.548;2023-06-26T06:37:35;26.60;54.10
24744;DHT22;12844;52.110;5.548;2023-06-26T06:40:00;26.50;54.00
24744;DHT22;12844;52.110;5.548;2023-06-26T06:42:26;26.60;54.10
24744;DHT22;12844;52.110;5.548;2023-06-26T06:44:51;26.60;54.10
24744;DHT22;12844;52.110;5.548;2023-06-26T06:47:17;26.50;54.00
24744;DHT22;12844;52.110;5.548;2023-06-26T06:49:42;26.60;54.10
24744;DHT22;12844;52.110;5.548;2023-06-26T06:52:08;26.50;54.00
24744;DHT22;12844;52.110;5.548;2023-06-26T06:54:51;26.60;54.00
24744;DHT22;12844;52.110;5.548;2023-06-26T06:57:16;26.60;54.00
24744;DHT22;12844;52.110;5.548;2023-06-26T06:59:42;26.50;53.90
24744;DHT22;12844;52.110;5.548;2023-06-26T07:02:07;26.50;54.00
24744;DHT22;12844;52.110;5.548;2023-06-26T07:04:33;26.50;54.00
24744;DHT22;12844;52.110;5.548;2023-06-26T07:06:58;26.50;53.90
24744;DHT22;12844;52.110;5.548;2023-06-26T07:09:24;26.50;53.90
24744;DHT22;12844;52.110;5.548;2023-06-26T07:11:49;26.50;53.90
24744;DHT22;12844;52.110;5.548;2023-06-26T07:14:15;26.50;53.90
24744;DHT22;12844;52.110;5.548;2023-06-26T07:16:40;26.50;53.90
24744;DHT22;12844;52.110;5.548;2023-06-26T07:19:06;26.50;53.90
24744;DHT22;12844;52.110;5.548;2023-06-26T07:21:31;26.50;53.90
24744;DHT22;12844;52.110;5.548;2023-06-26T07:23:57;26.60;53.90
24744;DHT22;12844;52.110;5.548;2023-06-26T07:26:22;26.50;53.90
24744;DHT22;12844;52.110;5.548;2023-06-26T07:28:48;26.50;53.90
24744;DHT22;12844;52.110;5.548;2023-06-26T07:31:14;26.50;54.50
24744;DHT22;12844;52.110;5.548;2023-06-26T07:33:42;26.60;53.90
24744;DHT22;12844;52.110;5.548;2023-06-26T07:36:07;26.50;53.80
24744;DHT22;12844;52.110;5.548;2023-06-26T07:38:33;26.50;53.80
24744;DHT22;12844;52.110;5.548;2023-06-26T07:40:58;26.50;53.80
24744;DHT22;12844;52.110;5.548;2023-06-26T07:43:24;26.60;53.90
24744;DHT22;12844;52.110;5.548;2023-06-26T07:45:49;26.50;53.80
24744;DHT22;12844;52.110;5.548;2023-06-26T07:48:16;26.50;53.80
24744;DHT22;12844;52.110;5.548;2023-06-26T07:50:42;26.60;54.50
24744;DHT22;12844;52.110;5.548;2023-06-26T07:53:08;26.60;53.80
24744;DHT22;12844;52.110;5.548;2023-06-26T07:55:33;26.60;53.80
24744;DHT22;12844;52.110;5.548;2023-06-26T07:57:59;26.50;53.70
24744;DHT22;12844;52.110;5.548;2023-06-26T08:00:24;26.50;53.70
24744;DHT22;12844;52.110;5.548;2023-06-26T08:02:50;26.50;53.70
24744;DHT22;12844;52.110;5.548;2023-06-26T08:15:37;26.60;53.70
24744;DHT22;12844;52.110;5.548;2023-06-26T08:18:02;26.60;53.70
24744;DHT22;12844;52.110;5.548;2023-06-26T08:20:28;26.60;53.60
24744;DHT22;12844;52.110;5.548;2023-06-26T08:22:53;26.60;53.60
24744;DHT22;12844;52.110;5.548;2023-06-26T08:25:20;26.60;53.70
24744;DHT22;12844;52.110;5.548;2023-06-26T08:27:45;26.60;53.60
24744;DHT22;12844;52.110;5.548;2023-06-26T08:30:11;26.60;53.70
24744;DHT22;12844;52.110;5.548;2023-06-26T08:32:37;26.60;53.60
24744;DHT22;12844;52.110;5.548;2023-06-26T08:35:03;26.60;53.60
24744;DHT22;12844;52.110;5.548;2023-06-26T08:37:28;26.60;53.60
24744;DHT22;12844;52.110;5.548;2023-06-26T08:39:54;26.60;53.50
24744;DHT22;12844;52.110;5.548;2023-06-26T08:42:19;26.70;53.60
24744;DHT22;12844;52.110;5.548;2023-06-26T08:44:45;26.70;53.50
24744;DHT22;12844;52.110;5.548;2023-06-26T08:47:11;26.70;53.40
24744;DHT22;12844;52.110;5.548;2023-06-26T08:52:23;26.80;53.40
24744;DHT22;12844;52.110;5.548;2023-06-26T08:54:53;26.80;53.40
24744;DHT22;12844;52.110;5.548;2023-06-26T08:57:23;26.80;53.30
24744;DHT22;12844;52.110;5.548;2023-06-26T08:59:49;26.80;53.30
24744;DHT22;12844;52.110;5.548;2023-06-26T09:02:15;26.70;53.30
24744;DHT22;12844;52.110;5.548;2023-06-26T09:04:40;26.70;53.40
24744;DHT22;12844;52.110;5.548;2023-06-26T09:07:07;26.70;53.40
24744;DHT22;12844;52.110;5.548;2023-06-26T09:09:33;26.70;53.40
24744;DHT22;12844;52.110;5.548;2023-06-26T09:11:58;26.80;53.30
24744;DHT22;12844;52.110;5.548;2023-06-26T09:14:24;26.80;53.30
24744;DHT22;12844;52.110;5.548;2023-06-26T09:16:50;26.80;53.20
24744;DHT22;12844;52.110;5.548;2023-06-26T09:19:15;26.90;53.20
24744;DHT22;12844;52.110;5.548;2023-06-26T09:21:42;26.90;53.20
24744;DHT22;12844;52.110;5.548;2023-06-26T09:24:09;26.80;53.20
24744;DHT22;12844;52.110;5.548;2023-06-26T09:26:38;26.90;53.30
24744;DHT22;12844;52.110;5.548;2023-06-26T09:29:05;26.90;53.30
24744;DHT22;12844;52.110;5.548;2023-06-26T09:31:33;26.90;53.20
24744;DHT22;12844;52.110;5.548;2023-06-26T09:33:59;26.90;53.10
24744;DHT22;12844;52.110;5.548;2023-06-26T09:36:28;26.90;53.10
24744;DHT22;12844;52.110;5.548;2023-06-26T09:38:54;26.90;53.10
24744;DHT22;12844;52.110;5.548;2023-06-26T09:41:20;26.90;53.10
24744;DHT22;12844;52.110;5.548;2023-06-26T09:43:49;26.90;53.10
24744;DHT22;12844;52.110;5.548;2023-06-26T09:46:16;27.00;53.20
24744;DHT22;12844;52.110;5.548;2023-06-26T09:48:43;27.00;53.20
24744;DHT22;12844;52.110;5.548;2023-06-26T09:51:09;27.00;53.10
24744;DHT22;12844;52.110;5.548;2023-06-26T09:53:35;27.00;53.10
24744;DHT22;12844;52.110;5.548;2023-06-26T09:56:15;27.00;53.10
24744;DHT22;12844;52.110;5.548;2023-06-26T09:58:42;27.00;53.00
24744;DHT22;12844;52.110;5.548;2023-06-26T10:01:08;27.00;53.00
24744;DHT22;12844;52.110;5.548;2023-06-26T10:03:35;27.10;53.00
24744;DHT22;12844;52.110;5.548;2023-06-26T10:06:01;27.10;53.00
24744;DHT22;12844;52.110;5.548;2023-06-26T10:08:28;27.10;53.00
24744;DHT22;12844;52.110;5.548;2023-06-26T10:10:55;27.10;53.00
24744;DHT22;12844;52.110;5.548;2023-06-26T10:13:31;27.10;53.00
24744;DHT22;12844;52.110;5.548;2023-06-26T10:15:59;27.10;52.90
24744;DHT22;12844;52.110;5.548;2023-06-26T10:18:26;27.10;52.90
24744;DHT22;12844;52.110;5.548;2023-06-26T10:20:54;27.10;52.90
24744;DHT22;12844;52.110;5.548;2023-06-26T10:23:22;27.10;52.90
24744;DHT22;12844;52.110;5.548;2023-06-26T10:25:48;27.10;52.90
24744;DHT22;12844;52.110;5.548;2023-06-26T10:28:16;27.10;53.00
24744;DHT22;12844;52.110;5.548;2023-06-26T10:30:44;27.10;53.00
24744;DHT22;12844;52.110;5.548;2023-06-26T10:33:10;27.10;53.00
24744;DHT22;12844;52.110;5.548;2023-06-26T10:35:44;27.10;52.90
24744;DHT22;12844;52.110;5.548;2023-06-26T10:38:12;27.10;52.90
24744;DHT22;12844;52.110;5.548;2023-06-26T10:40:46;27.10;52.90
24744;DHT22;12844;52.110;5.548;2023-06-26T10:43:13;27.10;52.90
24744;DHT22;12844;52.110;5.548;2023-06-26T10:45:46;27.10;52.90
24744;DHT22;12844;52.110;5.548;2023-06-26T10:48:17;27.10;52.90
24744;DHT22;12844;52.110;5.548;2023-06-26T10:50:43;27.10;52.90
24744;DHT22;12844;52.110;5.548;2023-06-26T10:55:59;27.20;52.90
24744;DHT22;12844;52.110;5.548;2023-06-26T11:03:37;27.10;52.80
24744;DHT22;12844;52.110;5.548;2023-06-26T11:06:14;27.20;52.90
24744;DHT22;12844;52.110;5.548;2023-06-26T11:08:54;27.20;52.90
24744;DHT22;12844;52.110;5.548;2023-06-26T11:14:20;27.20;52.80
24744;DHT22;12844;52.110;5.548;2023-06-26T11:16:46;27.20;52.90
24744;DHT22;12844;52.110;5.548;2023-06-26T11:19:13;27.20;52.90
24744;DHT22;12844;52.110;5.548;2023-06-26T11:21:39;27.20;52.90
24744;DHT22;12844;52.110;5.548;2023-06-26T11:24:06;27.20;52.80
24744;DHT22;12844;52.110;5.548;2023-06-26T11:26:38;27.20;52.80
24744;DHT22;12844;52.110;5.548;2023-06-26T11:29:04;27.30;52.80
24744;DHT22;12844;52.110;5.548;2023-06-26T11:31:31;27.30;52.70
24744;DHT22;12844;52.110;5.548;2023-06-26T11:34:02;27.30;52.70
24744;DHT22;12844;52.110;5.548;2023-06-26T11:36:29;27.30;52.80
24744;DHT22;12844;52.110;5.548;2023-06-26T11:38:56;27.30;52.80
24744;DHT22;12844;52.110;5.548;2023-06-26T11:41:26;27.30;52.80
24744;DHT22;12844;52.110;5.548;2023-06-26T11:43:52;27.30;52.80
24744;DHT22;12844;52.110;5.548;2023-06-26T11:46:20;27.20;52.70
24744;DHT22;12844;52.110;5.548;2023-06-26T11:48:46;27.20;52.80
24744;DHT22;12844;52.110;5.548;2023-06-26T11:51:15;27.20;52.80
24744;DHT22;12844;52.110;5.548;2023-06-26T11:53:42;27.30;52.90
24744;DHT22;12844;52.110;5.548;2023-06-26T11:56:12;27.20;52.90
24744;DHT22;12844;52.110;5.548;2023-06-26T11:59:05;27.20;52.80
24744;DHT22;12844;52.110;5.548;2023-06-26T12:01:35;27.30;52.80
24744;DHT22;12844;52.110;5.548;2023-06-26T12:04:03;27.20;52.90
24744;DHT22;12844;52.110;5.548;2023-06-26T12:06:30;27.20;52.90
24744;DHT22;12844;52.110;5.548;2023-06-26T12:08:59;27.20;52.90
24744;DHT22;12844;52.110;5.548;2023-06-26T12:11:25;27.20;52.90
24744;DHT22;12844;52.110;5.548;2023-06-26T12:13:52;27.30;53.00
24744;DHT22;12844;52.110;5.548;2023-06-26T12:16:18;27.20;52.90
24744;DHT22;12844;52.110;5.548;2023-06-26T12:18:44;27.20;52.90
24744;DHT22;12844;52.110;5.548;2023-06-26T12:24:00;27.30;52.90
24744;DHT22;12844;52.110;5.548;2023-06-26T12:26:26;27.30;52.90
24744;DHT22;12844;52.110;5.548;2023-06-26T12:28:52;27.30;52.90
24744;DHT22;12844;52.110;5.548;2023-06-26T12:31:21;27.30;53.00
24744;DHT22;12844;52.110;5.548;2023-06-26T12:33:47;27.30;52.90
24744;DHT22;12844;52.110;5.548;2023-06-26T12:36:13;27.30;52.90
24744;DHT22;12844;52.110;5.548;2023-06-26T12:38:39;27.30;53.00
24744;DHT22;12844;52.110;5.548;2023-06-26T12:41:04;27.30;53.00
24744;DHT22;12844;52.110;5.548;2023-06-26T12:43:30;27.30;53.00
24744;DHT22;12844;52.110;5.548;2023-06-26T12:45:56;27.30;53.00
24744;DHT22;12844;52.110;5.548;2023-06-26T12:48:35;27.30;53.00
24744;DHT22;12844;52.110;5.548;2023-06-26T12:51:11;27.30;53.00
24744;DHT22;12844;52.110;5.548;2023-06-26T12:53:37;27.30;53.00
24744;DHT22;12844;52.110;5.548;2023-06-26T12:56:05;27.20;53.00
24744;DHT22;12844;52.110;5.548;2023-06-26T12:58:31;27.20;53.00
24744;DHT22;12844;52.110;5.548;2023-06-26T13:00:57;27.20;53.00
24744;DHT22;12844;52.110;5.548;2023-06-26T13:03:23;27.30;53.10
24744;DHT22;12844;52.110;5.548;2023-06-26T13:05:48;27.20;53.10
24744;DHT22;12844;52.110;5.548;2023-06-26T13:08:14;27.20;53.10
24744;DHT22;12844;52.110;5.548;2023-06-26T13:10:42;27.20;53.10
24744;DHT22;12844;52.110;5.548;2023-06-26T13:13:12;27.20;53.10
24744;DHT22;12844;52.110;5.548;2023-06-26T13:15:38;27.20;53.20
24744;DHT22;12844;52.110;5.548;2023-06-26T13:18:03;27.20;53.20
24744;DHT22;12844;52.110;5.548;2023-06-26T13:20:29;27.20;53.20
24744;DHT22;12844;52.110;5.548;2023-06-26T13:22:55;27.20;53.20
24744;DHT22;12844;52.110;5.548;2023-06-26T13:25:21;27.20;53.30
24744;DHT22;12844;52.110;5.548;2023-06-26T13:27:47;27.20;53.30
24744;DHT22;12844;52.110;5.548;2023-06-26T13:30:14;27.20;53.30
24744;DHT22;12844;52.110;5.548;2023-06-26T13:32:40;27.20;53.40
24744;DHT22;12844;52.110;5.548;2023-06-26T13:35:06;27.20;53.40
24744;DHT22;12844;52.110;5.548;2023-06-26T13:37:32;27.10;53.30
24744;DHT22;12844;52.110;5.548;2023-06-26T13:40:01;27.20;53.40
24744;DHT22;12844;52.110;5.548;2023-06-26T13:42:28;27.20;53.50
24744;DHT22;12844;52.110;5.548;2023-06-26T13:44:53;27.10;53.40
24744;DHT22;12844;52.110;5.548;2023-06-26T13:47:19;27.10;53.40
24744;DHT22;12844;52.110;5.548;2023-06-26T13:49:45;27.10;53.40
24744;DHT22;12844;52.110;5.548;2023-06-26T13:52:10;27.10;53.40
24744;DHT22;12844;52.110;5.548;2023-06-26T13:54:37;27.10;53.40
24744;DHT22;12844;52.110;5.548;2023-06-26T13:57:05;27.20;53.50
24744;DHT22;12844;52.110;5.548;2023-06-26T13:59:31;27.10;53.50
24744;DHT22;12844;52.110;5.548;2023-06-26T14:01:56;27.10;53.50
24744;DHT22;12844;52.110;5.548;2023-06-26T14:04:22;27.10;53.50
24744;DHT22;12844;52.110;5.548;2023-06-26T14:06:48;27.10;53.50
24744;DHT22;12844;52.110;5.548;2023-06-26T14:09:13;27.10;53.50
24744;DHT22;12844;52.110;5.548;2023-06-26T14:11:39;27.10;53.50
24744;DHT22;12844;52.110;5.548;2023-06-26T14:14:05;27.10;53.60
24744;DHT22;12844;52.110;5.548;2023-06-26T14:16:30;27.10;53.60
24744;DHT22;12844;52.110;5.548;2023-06-26T14:18:57;27.10;53.60
24744;DHT22;12844;52.110;5.548;2023-06-26T14:21:22;27.10;53.60
24744;DHT22;12844;52.110;5.548;2023-06-26T14:23:48;27.10;53.60
24744;DHT22;12844;52.110;5.548;2023-06-26T14:26:13;27.10;53.60
24744;DHT22;12844;52.110;5.548;2023-06-26T14:28:39;27.10;53.60
24744;DHT22;12844;52.110;5.548;2023-06-26T14:31:05;27.20;53.70
24744;DHT22;12844;52.110;5.548;2023-06-26T14:33:31;27.20;53.70
24744;DHT22;12844;52.110;5.548;2023-06-26T14:35:56;27.20;53.60
24744;DHT22;12844;52.110;5.548;2023-06-26T14:38:22;27.10;53.60
24744;DHT22;12844;52.110;5.548;2023-06-26T14:40:47;27.10;53.60
24744;DHT22;12844;52.110;5.548;2023-06-26T14:43:13;27.20;53.70
24744;DHT22;12844;52.110;5.548;2023-06-26T14:45:39;27.10;53.60
24744;DHT22;12844;52.110;5.548;2023-06-26T14:48:04;27.20;53.70
24744;DHT22;12844;52.110;5.548;2023-06-26T14:50:30;27.10;53.60
24744;DHT22;12844;52.110;5.548;2023-06-26T14:52:55;27.10;53.70
24744;DHT22;12844;52.110;5.548;2023-06-26T14:55:21;27.10;53.70
24744;DHT22;12844;52.110;5.548;2023-06-26T14:57:46;27.10;53.60
24744;DHT22;12844;52.110;5.548;2023-06-26T15:00:12;27.20;53.70
24744;DHT22;12844;52.110;5.548;2023-06-26T15:02:38;27.10;53.70
24744;DHT22;12844;52.110;5.548;2023-06-26T15:05:04;27.20;53.70
24744;DHT22;12844;52.110;5.548;2023-06-26T15:07:30;27.10;53.70
24744;DHT22;12844;52.110;5.548;2023-06-26T15:09:55;27.20;53.70
24744;DHT22;12844;52.110;5.548;2023-06-26T15:12:21;27.20;53.70
24744;DHT22;12844;52.110;5.548;2023-06-26T15:14:49;27.20;53.70
24744;DHT22;12844;52.110;5.548;2023-06-26T15:17:14;27.10;53.70
24744;DHT22;12844;52.110;5.548;2023-06-26T15:19:40;27.10;53.70
24744;DHT22;12844;52.110;5.548;2023-06-26T15:22:06;27.20;53.70
24744;DHT22;12844;52.110;5.548;2023-06-26T15:24:32;27.10;53.70
24744;DHT22;12844;52.110;5.548;2023-06-26T15:26:57;27.20;53.80
24744;DHT22;12844;52.110;5.548;2023-06-26T15:29:23;27.20;53.70
24744;DHT22;12844;52.110;5.548;2023-06-26T15:31:48;27.20;53.80
24744;DHT22;12844;52.110;5.548;2023-06-26T15:34:14;27.20;53.80
24744;DHT22;12844;52.110;5.548;2023-06-26T15:36:40;27.20;53.80
24744;DHT22;12844;52.110;5.548;2023-06-26T15:39:05;27.20;53.80
24744;DHT22;12844;52.110;5.548;2023-06-26T15:41:31;27.20;53.80
24744;DHT22;12844;52.110;5.548;2023-06-26T15:43:56;27.10;54.00
24744;DHT22;12844;52.110;5.548;2023-06-26T15:46:22;27.20;53.80
24744;DHT22;12844;52.110;5.548;2023-06-26T15:48:47;27.20;53.80
24744;DHT22;12844;52.110;5.548;2023-06-26T15:51:13;27.20;53.80
24744;DHT22;12844;52.110;5.548;2023-06-26T15:53:40;27.20;53.80
24744;DHT22;12844;52.110;5.548;2023-06-26T15:56:15;27.10;53.70
24744;DHT22;12844;52.110;5.548;2023-06-26T15:58:41;27.20;53.70
24744;DHT22;12844;52.110;5.548;2023-06-26T16:01:11;27.20;53.80
24744;DHT22;12844;52.110;5.548;2023-06-26T16:03:37;27.20;53.80
24744;DHT22;12844;52.110;5.548;2023-06-26T16:06:03;27.20;53.80
24744;DHT22;12844;52.110;5.548;2023-06-26T16:08:29;27.10;53.70
24744;DHT22;12844;52.110;5.548;2023-06-26T16:10:54;27.20;53.80
24744;DHT22;12844;52.110;5.548;2023-06-26T16:13:20;27.10;53.70
24744;DHT22;12844;52.110;5.548;2023-06-26T16:15:47;27.20;53.80
24744;DHT22;12844;52.110;5.548;2023-06-26T16:18:13;27.20;53.80
24744;DHT22;12844;52.110;5.548;2023-06-26T16:20:39;27.20;53.80
24744;DHT22;12844;52.110;5.548;2023-06-26T16:23:05;27.20;53.80
24744;DHT22;12844;52.110;5.548;2023-06-26T16:25:30;27.20;53.80
24744;DHT22;12844;52.110;5.548;2023-06-26T16:27:56;27.10;53.70
24744;DHT22;12844;52.110;5.548;2023-06-26T16:30:21;27.10;53.70
24744;DHT22;12844;52.110;5.548;2023-06-26T16:32:47;27.10;53.70
24744;DHT22;12844;52.110;5.548;2023-06-26T16:35:12;27.10;53.70
24744;DHT22;12844;52.110;5.548;2023-06-26T16:37:38;27.20;53.80
24744;DHT22;12844;52.110;5.548;2023-06-26T16:40:04;27.20;53.80
24744;DHT22;12844;52.110;5.548;2023-06-26T16:42:30;27.10;53.70
24744;DHT22;12844;52.110;5.548;2023-06-26T16:44:55;27.10;53.70
24744;DHT22;12844;52.110;5.548;2023-06-26T16:47:21;27.10;53.70
24744;DHT22;12844;52.110;5.548;2023-06-26T16:49:46;27.10;53.70
24744;DHT22;12844;52.110;5.548;2023-06-26T16:52:12;27.10;53.70
24744;DHT22;12844;52.110;5.548;2023-06-26T16:54:37;27.10;53.70
24744;DHT22;12844;52.110;5.548;2023-06-26T16:57:03;27.10;53.70
24744;DHT22;12844;52.110;5.548;2023-06-26T16:59:29;27.10;53.70
24744;DHT22;12844;52.110;5.548;2023-06-26T17:01:54;27.10;53.70
24744;DHT22;12844;52.110;5.548;2023-06-26T17:04:22;27.10;53.70
24744;DHT22;12844;52.110;5.548;2023-06-26T17:06:48;27.10;53.70
24744;DHT22;12844;52.110;5.548;2023-06-26T17:09:13;27.10;53.70
24744;DHT22;12844;52.110;5.548;2023-06-26T17:11:39;27.10;53.70
24744;DHT22;12844;52.110;5.548;2023-06-26T17:14:08;27.10;53.70
24744;DHT22;12844;52.110;5.548;2023-06-26T17:16:33;27.10;53.70
24744;DHT22;12844;52.110;5.548;2023-06-26T17:18:59;27.10;53.70
24744;DHT22;12844;52.110;5.548;2023-06-26T17:21:25;27.10;53.80
24744;DHT22;12844;52.110;5.548;2023-06-26T17:23:50;27.10;53.70
24744;DHT22;12844;52.110;5.548;2023-06-26T17:26:16;27.10;53.80
24744;DHT22;12844;52.110;5.548;2023-06-26T17:28:41;27.10;53.70
24744;DHT22;12844;52.110;5.548;2023-06-26T17:31:07;27.10;53.80
24744;DHT22;12844;52.110;5.548;2023-06-26T17:33:32;27.10;53.70